Time;durP1;ratioP1;P1;durP2;ratioP2;P2;SDS_P1;SDS_P2;PMS_P1;PMS_P2;Temp;Humidity;BMP_temperature;BMP_pressure;BME280_temperature;BME280_humidity;BME280_pressure;Samples;Min_cycle;Max_cycle;Signal;HPM_P1;HPM_P2
2021/04/10 00:01:51;;;;;;;4.30;3.80;;;5.20;99.90;;;;;;4986495;28;20275;-81
2021/04/10 00:04:17;;;;;;;3.43;3.13;;;5.10;99.90;;;;;;4986689;28;20246;-82
2021/04/10 00:06:42;;;;;;;6.07;4.30;;;5.00;99.90;;;;;;5002068;28;20188;-81
2021/04/10 00:09:09;;;;;;;4.00;3.57;;;5.10;99.90;;;;;;4985213;28;20208;-81
2021/04/10 00:11:35;;;;;;;4.27;3.50;;;5.10;99.90;;;;;;4986240;28;20700;-81
2021/04/10 00:14:05;;;;;;;4.60;3.60;;;5.10;99.90;;;;;;4985409;28;21058;-81
2021/04/10 00:16:31;;;;;;;3.73;3.33;;;5.20;99.90;;;;;;4985595;28;20875;-82
2021/04/10 00:18:57;;;;;;;3.67;3.30;;;5.20;99.90;;;;;;4985277;28;20295;-81
2021/04/10 00:21:22;;;;;;;4.43;3.53;;;5.20;99.90;;;;;;4987010;28;20264;-81
2021/04/10 00:23:48;;;;;;;4.97;4.40;;;5.30;99.90;;;;;;4986282;28;20247;-82
2021/04/10 00:26:14;;;;;;;5.10;4.37;;;5.30;99.90;;;;;;4985425;28;20196;-81
2021/04/10 00:28:40;;;;;;;4.37;3.17;;;5.20;99.90;;;;;;4985084;28;20215;-81
2021/04/10 00:31:06;;;;;;;4.70;3.80;;;5.20;99.90;;;;;;4986779;28;20223;-82
2021/04/10 00:33:39;;;;;;;4.40;3.73;;;5.30;99.90;;;;;;4985086;28;20218;-82
2021/04/10 00:36:06;;;;;;;4.27;3.30;;;5.30;99.90;;;;;;4985392;28;20195;-82
2021/04/10 00:38:33;;;;;;;3.67;3.37;;;5.30;99.90;;;;;;4984590;28;20271;-81
2021/04/10 00:40:59;;;;;;;3.97;3.13;;;5.30;99.90;;;;;;4985342;28;20355;-82
2021/04/10 00:43:25;;;;;;;5.10;3.30;;;5.20;99.90;;;;;;4984513;28;20207;-81
2021/04/10 00:45:51;;;;;;;5.17;3.20;;;5.20;99.90;;;;;;4984846;28;20176;-82
2021/04/10 00:48:17;;;;;;;3.67;3.37;;;5.10;99.90;;;;;;4984148;28;20212;-82
2021/04/10 00:50:43;;;;;;;4.43;3.70;;;5.20;99.90;;;;;;4984954;28;20215;-81
2021/04/10 00:53:09;;;;;;;5.37;3.87;;;5.10;99.90;;;;;;4985943;28;20184;-81
2021/04/10 00:55:38;;;;;;;4.13;3.73;;;5.10;99.90;;;;;;4983086;28;20227;-82
2021/04/10 00:58:03;;;;;;;4.83;4.07;;;5.10;99.90;;;;;;4984314;28;20797;-82
2021/04/10 01:00:29;;;;;;;4.17;3.77;;;5.00;99.90;;;;;;4986217;28;20270;-82
2021/04/10 01:02:55;;;;;;;4.03;3.43;;;5.00;99.90;;;;;;4984395;28;20184;-82
2021/04/10 01:05:21;;;;;;;4.97;4.47;;;5.00;99.90;;;;;;5001311;28;20266;-81
2021/04/10 01:07:46;;;;;;;4.90;3.93;;;5.00;99.90;;;;;;4983960;28;20226;-81
2021/04/10 01:10:13;;;;;;;4.73;4.30;;;5.10;99.90;;;;;;4984921;28;20732;-81
2021/04/10 01:12:48;;;;;;;6.03;4.13;;;5.20;99.90;;;;;;4985168;28;20212;-82
2021/04/10 01:15:18;;;;;;;4.57;3.87;;;5.30;99.90;;;;;;4984648;28;20172;-81
2021/04/10 01:17:58;;;;;;;5.13;4.63;;;5.30;99.90;;;;;;4984437;28;20183;-81
2021/04/10 01:20:48;;;;;;;4.43;3.93;;;5.20;99.90;;;;;;4986270;28;20286;-81
2021/04/10 01:23:35;;;;;;;4.27;3.87;;;5.10;99.90;;;;;;4984146;28;20271;-82
2021/04/10 01:26:01;;;;;;;5.00;4.07;;;5.20;99.90;;;;;;5000438;28;20225;-81
2021/04/10 01:28:45;;;;;;;5.03;4.27;;;5.20;99.90;;;;;;4984142;28;20931;-81
2021/04/10 01:31:12;;;;;;;4.63;3.60;;;5.20;99.90;;;;;;4984446;28;21059;-81
2021/04/10 01:33:44;;;;;;;6.00;4.87;;;5.20;99.90;;;;;;4984249;28;20180;-82
2021/04/10 01:36:12;;;;;;;4.30;3.23;;;5.20;99.90;;;;;;4986212;28;20180;-81
2021/04/10 01:38:42;;;;;;;6.27;3.80;;;5.20;99.90;;;;;;4984610;28;20291;-81
2021/04/10 01:41:09;;;;;;;5.37;4.40;;;5.20;99.90;;;;;;4984674;28;20180;-80
2021/04/10 01:43:37;;;;;;;5.20;4.00;;;5.30;99.90;;;;;;4983586;28;20281;-81
2021/04/10 01:46:03;;;;;;;5.30;4.07;;;5.30;99.90;;;;;;5000553;28;20278;-82
2021/04/10 01:48:31;;;;;;;5.60;4.37;;;5.30;99.90;;;;;;4984303;28;20212;-82
2021/04/10 01:50:59;;;;;;;5.27;4.20;;;5.40;99.90;;;;;;4985704;28;20228;-81
2021/04/10 01:53:27;;;;;;;6.13;4.20;;;5.40;99.90;;;;;;4985470;28;21026;-81
2021/04/10 01:55:53;;;;;;;4.63;3.90;;;5.40;99.90;;;;;;4985510;28;20250;-81
2021/04/10 01:58:19;;;;;;;5.97;4.20;;;5.40;99.90;;;;;;4983744;28;20207;-81
2021/04/10 02:00:46;;;;;;;4.43;4.03;;;5.50;99.90;;;;;;4984519;28;20173;-81
2021/04/10 02:03:21;;;;;;;4.57;3.77;;;5.40;99.90;;;;;;4983821;28;20188;-81
2021/04/10 02:05:51;;;;;;;4.90;3.87;;;5.30;99.90;;;;;;4983992;28;20827;-81
2021/04/10 02:08:18;;;;;;;5.63;4.10;;;5.30;99.90;;;;;;4983334;28;20210;-81
2021/04/10 02:10:45;;;;;;;4.80;4.27;;;5.40;99.90;;;;;;4983940;28;20189;-81
2021/04/10 02:13:12;;;;;;;4.47;3.97;;;5.40;99.90;;;;;;4983890;28;20191;-81
2021/04/10 02:15:38;;;;;;;4.10;3.57;;;5.40;99.90;;;;;;4987072;28;20237;-81
2021/04/10 02:18:04;;;;;;;4.90;4.00;;;5.30;99.90;;;;;;4987240;28;20244;-81
2021/04/10 02:20:30;;;;;;;5.10;4.40;;;5.20;99.90;;;;;;4988276;28;20177;-81
2021/04/10 02:22:57;;;;;;;3.77;3.43;;;5.20;99.90;;;;;;4987186;28;20180;-81
2021/04/10 02:25:27;;;;;;;5.67;3.90;;;5.20;99.90;;;;;;4989153;28;20192;-81
2021/04/10 02:27:54;;;;;;;7.33;4.37;;;5.20;99.90;;;;;;4987755;28;20200;-81
2021/04/10 02:30:20;;;;;;;4.60;4.20;;;5.10;99.90;;;;;;5004265;28;20278;-81
2021/04/10 02:32:55;;;;;;;5.73;4.50;;;5.00;99.90;;;;;;4987656;28;20214;-81
2021/04/10 02:35:29;;;;;;;4.87;4.37;;;5.00;99.90;;;;;;5003424;28;20186;-81
2021/04/10 02:37:55;;;;;;;4.87;4.00;;;5.10;99.90;;;;;;4986343;28;20211;-80
2021/04/10 02:40:24;;;;;;;5.27;4.33;;;5.20;99.90;;;;;;4987386;28;20718;-80
2021/04/10 02:42:50;;;;;;;5.10;4.37;;;5.20;99.90;;;;;;4988851;28;20330;-81
2021/04/10 02:45:23;;;;;;;5.63;4.90;;;5.20;99.90;;;;;;4988432;28;20189;-81
2021/04/10 02:47:50;;;;;;;5.13;3.90;;;5.30;99.90;;;;;;4987172;28;20215;-80
2021/04/10 02:50:18;;;;;;;5.00;4.13;;;5.30;99.90;;;;;;4988760;28;20250;-80
2021/04/10 02:52:47;;;;;;;9.20;5.90;;;5.40;99.90;;;;;;4987020;28;20886;-80
2021/04/10 02:55:17;;;;;;;6.57;4.83;;;5.50;99.90;;;;;;4986888;28;20200;-80
2021/04/10 02:57:43;;;;;;;6.43;5.00;;;5.40;99.90;;;;;;4986982;28;20173;-79
2021/04/10 03:00:11;;;;;;;7.13;5.00;;;5.50;99.90;;;;;;4987138;28;20199;-80
2021/04/10 03:02:37;;;;;;;4.93;4.43;;;5.50;99.90;;;;;;4988145;28;20188;-80
2021/04/10 03:05:05;;;;;;;5.23;4.63;;;5.50;99.90;;;;;;4986371;28;20192;-80
2021/04/10 03:07:31;;;;;;;5.83;5.03;;;5.50;99.90;;;;;;5003226;28;20188;-81
2021/04/10 03:09:57;;;;;;;5.10;4.60;;;5.50;99.90;;;;;;4986855;28;20206;-80
2021/04/10 03:12:24;;;;;;;6.57;5.03;;;5.60;99.90;;;;;;4987176;28;20215;-80
2021/04/10 03:14:50;;;;;;;7.00;5.10;;;5.50;99.90;;;;;;4986601;28;20184;-79
2021/04/10 03:17:24;;;;;;;6.60;4.37;;;5.70;99.90;;;;;;4987711;28;20203;-80
2021/04/10 03:19:50;;;;;;;4.53;3.73;;;5.70;99.90;;;;;;4988038;28;20283;-78
2021/04/10 03:22:16;;;;;;;8.23;4.93;;;5.70;99.90;;;;;;4987041;28;20198;-79
2021/04/10 03:24:43;;;;;;;5.60;4.43;;;5.50;99.90;;;;;;4986334;28;20191;-80
2021/04/10 03:27:11;;;;;;;6.47;4.80;;;5.60;99.90;;;;;;5001763;28;20725;-79
2021/04/10 03:29:37;;;;;;;5.07;3.93;;;5.60;99.90;;;;;;4988061;28;20210;-78
2021/04/10 03:32:05;;;;;;;7.67;5.10;;;5.50;99.90;;;;;;5003145;28;20371;-80
2021/04/10 03:34:33;;;;;;;5.17;3.87;;;5.50;99.90;;;;;;4985843;28;20176;-79
2021/04/10 03:36:59;;;;;;;4.93;4.40;;;5.50;99.90;;;;;;4987862;28;20559;-79
2021/04/10 03:39:25;;;;;;;6.83;5.50;;;5.50;99.90;;;;;;4985957;28;20208;-77
2021/04/10 03:41:51;;;;;;;4.70;4.20;;;5.50;99.90;;;;;;4987646;28;20188;-79
2021/04/10 03:44:16;;;;;;;5.33;4.20;;;5.40;99.90;;;;;;4987282;28;21149;-78
2021/04/10 03:46:42;;;;;;;6.03;4.67;;;5.50;99.90;;;;;;4986328;28;20271;-78
2021/04/10 03:49:07;;;;;;;5.10;3.90;;;5.50;99.90;;;;;;5002962;28;20212;-79
2021/04/10 03:51:34;;;;;;;5.77;3.50;;;5.50;99.90;;;;;;4988335;28;20545;-79
2021/04/10 03:54:00;;;;;;;5.43;4.40;;;5.50;99.90;;;;;;4986518;28;20204;-79
2021/04/10 03:56:26;;;;;;;4.80;3.97;;;5.50;99.90;;;;;;4986749;28;20667;-78
2021/04/10 03:58:51;;;;;;;4.17;3.60;;;5.50;99.90;;;;;;4987328;28;20204;-79
2021/04/10 04:01:17;;;;;;;4.83;3.70;;;5.50;99.90;;;;;;4987171;28;20301;-79
2021/04/10 04:03:43;;;;;;;4.53;3.63;;;5.50;99.90;;;;;;4987265;28;20700;-79
2021/04/10 04:06:09;;;;;;;5.70;4.83;;;5.50;99.90;;;;;;4987072;28;21233;-79
2021/04/10 04:08:34;;;;;;;5.10;3.90;;;5.50;99.90;;;;;;4986802;28;20284;-79
2021/04/10 04:11:00;;;;;;;4.67;3.73;;;5.50;99.90;;;;;;4988522;28;20184;-79
2021/04/10 04:13:26;;;;;;;4.13;3.50;;;5.40;99.90;;;;;;4988413;28;20214;-79
2021/04/10 04:15:51;;;;;;;7.23;4.13;;;5.50;99.90;;;;;;4986911;28;20196;-79
2021/04/10 04:18:17;;;;;;;5.47;4.70;;;5.50;99.90;;;;;;4987123;28;20227;-79
2021/04/10 04:20:43;;;;;;;4.33;3.43;;;5.50;99.90;;;;;;5002782;28;20493;-79
2021/04/10 04:23:08;;;;;;;4.83;3.57;;;5.50;99.90;;;;;;4987702;28;20662;-79
2021/04/10 04:25:34;;;;;;;5.23;3.83;;;5.30;99.90;;;;;;4986154;28;20266;-79
2021/04/10 04:28:00;;;;;;;3.67;3.10;;;5.30;99.90;;;;;;4986503;28;20208;-79
2021/04/10 04:30:26;;;;;;;4.73;3.03;;;5.30;99.90;;;;;;5002682;28;20708;-79
2021/04/10 04:32:52;;;;;;;5.40;4.23;;;5.20;99.90;;;;;;4987989;28;20208;-79
2021/04/10 04:35:18;;;;;;;5.00;4.20;;;5.20;99.90;;;;;;4985963;28;20681;-79
2021/04/10 04:37:44;;;;;;;5.10;3.70;;;5.20;99.90;;;;;;4985887;28;20181;-79
2021/04/10 04:40:10;;;;;;;5.90;4.70;;;5.20;99.90;;;;;;4986097;28;20180;-79
2021/04/10 04:42:36;;;;;;;5.23;3.70;;;5.20;99.90;;;;;;4987725;28;20188;-79
2021/04/10 04:45:03;;;;;;;5.03;3.60;;;5.20;99.90;;;;;;4985733;28;20188;-79
2021/04/10 04:47:28;;;;;;;5.83;4.10;;;5.10;99.90;;;;;;4985650;28;20184;-79
2021/04/10 04:49:54;;;;;;;5.60;4.37;;;5.10;99.90;;;;;;4987062;28;20187;-80
2021/04/10 04:52:20;;;;;;;4.90;4.43;;;5.10;99.90;;;;;;4986152;28;21689;-79
2021/04/10 04:54:45;;;;;;;5.40;4.63;;;5.10;99.90;;;;;;4985059;28;20200;-80
2021/04/10 04:57:11;;;;;;;6.10;4.50;;;5.10;99.90;;;;;;4986022;28;20195;-79
2021/04/10 04:59:36;;;;;;;5.40;3.67;;;5.10;99.90;;;;;;4986195;28;20203;-79
2021/04/10 05:02:02;;;;;;;5.00;4.13;;;5.00;99.90;;;;;;4985422;28;20681;-81
2021/04/10 05:04:28;;;;;;;4.70;3.60;;;5.00;99.90;;;;;;4984301;28;20180;-79
2021/04/10 05:06:53;;;;;;;4.80;4.10;;;5.10;99.90;;;;;;4985233;28;20180;-80
2021/04/10 05:09:19;;;;;;;5.80;4.00;;;5.00;99.90;;;;;;4984848;28;20294;-79
2021/04/10 05:11:44;;;;;;;5.73;3.93;;;5.00;99.90;;;;;;4985748;28;20212;-80
2021/04/10 05:14:10;;;;;;;4.60;3.77;;;5.00;99.90;;;;;;5001912;28;20184;-80
2021/04/10 05:16:36;;;;;;;6.67;5.30;;;5.10;99.90;;;;;;4985449;28;20215;-80
2021/04/10 05:19:02;;;;;;;5.03;4.07;;;5.10;99.90;;;;;;4984908;28;20232;-79
2021/04/10 05:21:28;;;;;;;4.77;3.97;;;5.10;99.90;;;;;;4984940;28;20797;-79
2021/04/10 05:23:53;;;;;;;5.77;4.47;;;5.10;99.90;;;;;;4984939;28;20202;-79
2021/04/10 05:26:19;;;;;;;5.07;4.33;;;5.10;99.90;;;;;;4984975;28;20188;-79
2021/04/10 05:28:45;;;;;;;6.13;4.93;;;5.20;99.90;;;;;;4984902;28;20302;-80
2021/04/10 05:31:10;;;;;;;5.10;4.53;;;5.20;99.90;;;;;;4984662;28;20184;-78
2021/04/10 05:33:36;;;;;;;5.83;4.43;;;5.30;99.90;;;;;;4985135;28;20183;-80
2021/04/10 05:36:03;;;;;;;4.90;4.07;;;5.20;99.90;;;;;;4983945;28;20767;-79
2021/04/10 05:38:29;;;;;;;5.07;4.57;;;5.30;99.90;;;;;;4984279;28;20263;-79
2021/04/10 05:40:54;;;;;;;5.30;4.10;;;5.30;99.90;;;;;;4984523;28;20267;-80
2021/04/10 05:43:21;;;;;;;6.10;4.70;;;5.30;99.90;;;;;;4984851;28;20176;-79
2021/04/10 05:45:46;;;;;;;6.10;4.73;;;5.30;99.90;;;;;;4983586;28;20183;-80
2021/04/10 05:48:12;;;;;;;4.77;4.27;;;5.30;99.90;;;;;;4984485;28;20640;-79
2021/04/10 05:50:38;;;;;;;4.93;4.07;;;5.40;99.90;;;;;;4987937;28;20603;-80
2021/04/10 05:53:04;;;;;;;4.67;4.03;;;5.50;99.90;;;;;;4989728;28;20212;-80
2021/04/10 05:55:30;;;;;;;8.07;4.40;;;5.60;99.90;;;;;;4988028;28;20202;-80
2021/04/10 05:57:56;;;;;;;6.57;4.80;;;5.60;99.90;;;;;;5004586;28;20225;-79
2021/04/10 06:00:22;;;;;;;7.87;5.10;;;5.80;99.90;;;;;;4988347;28;20264;-79
2021/04/10 06:02:51;;;;;;;4.80;4.30;;;5.80;99.90;;;;;;4988738;28;20272;-79
2021/04/10 06:05:19;;;;;;;5.80;4.47;;;6.00;99.90;;;;;;4988981;28;20176;-80
2021/04/10 06:07:46;;;;;;;8.93;5.27;;;6.10;99.90;;;;;;4988338;28;20669;-80
2021/04/10 06:10:13;;;;;;;6.57;5.27;;;6.20;99.90;;;;;;4989436;28;21301;-79
2021/04/10 06:12:39;;;;;;;12.57;6.30;;;6.40;99.90;;;;;;4988003;28;20200;-81
2021/04/10 06:15:06;;;;;;;5.03;4.30;;;6.40;99.90;;;;;;4987498;28;20255;-79
2021/04/10 06:17:32;;;;;;;10.50;5.60;;;6.50;99.90;;;;;;4987261;28;20657;-79
2021/04/10 06:19:59;;;;;;;6.30;5.47;;;6.50;99.90;;;;;;4988497;28;20203;-80
2021/04/10 06:22:24;;;;;;;6.13;4.93;;;6.50;99.90;;;;;;4989582;28;20279;-78
2021/04/10 06:24:51;;;;;;;6.27;5.07;;;6.60;99.90;;;;;;4986571;28;20284;-79
2021/04/10 06:27:18;;;;;;;6.50;5.20;;;6.60;99.90;;;;;;4987205;28;20223;-79
2021/04/10 06:29:44;;;;;;;5.53;4.23;;;6.70;99.90;;;;;;5003123;28;20903;-80
2021/04/10 06:32:09;;;;;;;5.93;4.43;;;6.70;99.90;;;;;;4987797;28;20212;-79
2021/04/10 06:34:36;;;;;;;6.40;4.93;;;6.80;99.90;;;;;;4987276;28;20278;-80
2021/04/10 06:37:01;;;;;;;5.70;4.43;;;6.90;99.90;;;;;;4987041;28;20196;-80
2021/04/10 06:39:27;;;;;;;7.37;4.37;;;6.80;99.90;;;;;;4987414;28;20254;-79
2021/04/10 06:41:53;;;;;;;5.13;4.10;;;6.90;99.90;;;;;;4987645;28;20223;-80
2021/04/10 06:44:19;;;;;;;4.20;3.60;;;6.80;99.90;;;;;;4987634;28;20192;-79
2021/04/10 06:46:48;;;;;;;5.27;3.60;;;6.90;99.90;;;;;;4989405;28;20671;-80
2021/04/10 06:49:15;;;;;;;4.40;3.27;;;6.90;99.90;;;;;;4986864;28;20306;-80
2021/04/10 06:51:41;;;;;;;4.83;3.03;;;6.80;99.90;;;;;;4987272;28;20208;-78
2021/04/10 06:54:08;;;;;;;4.47;2.77;;;6.80;99.90;;;;;;4987384;28;20274;-80
2021/04/10 06:56:38;;;;;;;5.57;3.37;;;6.80;99.90;;;;;;4987997;28;20185;-79
2021/04/10 06:59:15;;;;;;;4.67;3.13;;;6.90;99.90;;;;;;4986910;28;20668;-79
2021/04/10 07:01:42;;;;;;;4.23;3.03;;;7.00;99.90;;;;;;4986608;28;20191;-78
2021/04/10 07:04:08;;;;;;;5.37;3.73;;;7.10;99.90;;;;;;4987229;28;20192;-80
2021/04/10 07:06:37;;;;;;;6.93;3.30;;;7.10;99.90;;;;;;4987322;28;20192;-79
2021/04/10 07:09:03;;;;;;;5.23;3.37;;;7.10;99.90;;;;;;4987621;28;20211;-80
2021/04/10 07:11:29;;;;;;;3.33;2.60;;;7.20;99.90;;;;;;5003310;28;20215;-80
2021/04/10 07:13:55;;;;;;;3.47;2.80;;;7.40;99.90;;;;;;5003141;28;20185;-80
2021/04/10 07:16:22;;;;;;;5.50;3.30;;;7.50;99.90;;;;;;4988311;28;20198;-79
2021/04/10 07:18:48;;;;;;;4.43;3.10;;;7.50;99.90;;;;;;4986682;28;20212;-80
2021/04/10 07:21:15;;;;;;;4.23;3.33;;;7.60;99.90;;;;;;4987276;28;20204;-79
2021/04/10 07:23:45;;;;;;;4.20;2.70;;;7.70;99.90;;;;;;4987018;28;20220;-79
2021/04/10 07:26:11;;;;;;;3.33;2.40;;;7.80;99.90;;;;;;4989156;28;20254;-80
2021/04/10 07:28:37;;;;;;;2.33;2.00;;;7.90;99.90;;;;;;4986477;28;20227;-80
2021/04/10 07:31:04;;;;;;;1.67;1.27;;;7.90;99.90;;;;;;4986057;28;20188;-80
2021/04/10 07:33:33;;;;;;;1.87;1.27;;;8.00;99.90;;;;;;4988757;28;20617;-79
2021/04/10 07:36:00;;;;;;;1.10;1.00;;;7.80;99.90;;;;;;4986827;28;20188;-79
2021/04/10 07:38:34;;;;;;;1.23;0.90;;;7.50;99.90;;;;;;4986642;28;20399;-80
2021/04/10 07:41:05;;;;;;;2.37;1.17;;;7.40;99.90;;;;;;4986384;28;20669;-79
2021/04/10 07:43:36;;;;;;;2.53;1.70;;;7.20;99.90;;;;;;4984166;28;20310;-79
2021/04/10 07:46:20;;;;;;;2.30;1.23;;;7.20;99.90;;;;;;4986877;28;20745;-80
2021/04/10 07:49:03;;;;;;;4.07;1.90;;;7.30;99.90;;;;;;4986281;28;20323;-80
2021/04/10 07:51:31;;;;;;;3.63;1.80;;;7.30;99.90;;;;;;4986755;28;20343;-78
2021/04/10 07:53:59;;;;;;;1.43;1.17;;;7.00;99.90;;;;;;4986129;28;20192;-81
2021/04/10 07:56:25;;;;;;;1.60;1.23;;;7.00;99.90;;;;;;4987480;28;20199;-79
2021/04/10 07:58:59;;;;;;;4.23;1.90;;;7.00;99.90;;;;;;4986506;28;20950;-80
2021/04/10 08:01:26;;;;;;;1.40;1.07;;;7.00;99.90;;;;;;4986411;28;20183;-79
2021/04/10 08:03:57;;;;;;;1.50;1.23;;;7.00;99.90;;;;;;5002204;28;20188;-80
2021/04/10 08:06:22;;;;;;;2.33;1.20;;;7.00;99.90;;;;;;4986233;28;20181;-79
2021/04/10 08:08:52;;;;;;;3.60;1.47;;;6.90;99.90;;;;;;4986024;28;20228;-80
2021/04/10 08:11:34;;;;;;;1.10;0.90;;;7.00;99.90;;;;;;4987211;28;20200;-77
2021/04/10 08:14:05;;;;;;;2.47;1.10;;;6.90;99.90;;;;;;4985685;28;20181;-80
2021/04/10 08:16:31;;;;;;;2.07;1.37;;;6.80;99.90;;;;;;4985553;28;20607;-79
2021/04/10 08:19:03;;;;;;;3.20;1.27;;;6.80;99.90;;;;;;4987207;28;20569;-80
2021/04/10 08:21:31;;;;;;;1.37;0.90;;;6.80;99.90;;;;;;4986743;28;20191;-76
2021/04/10 08:23:58;;;;;;;3.23;1.23;;;6.70;99.90;;;;;;5002259;28;20211;-78
2021/04/10 08:26:24;;;;;;;6.07;1.90;;;6.70;99.90;;;;;;4985519;28;20192;-79
2021/04/10 08:28:50;;;;;;;1.17;1.07;;;6.70;99.90;;;;;;4984796;28;20244;-79
2021/04/10 08:31:17;;;;;;;1.40;1.27;;;6.90;99.90;;;;;;4985604;28;20222;-78
2021/04/10 08:33:43;;;;;;;4.33;1.93;;;7.10;99.90;;;;;;5002171;28;20216;-81
2021/04/10 08:36:10;;;;;;;6.13;3.60;;;7.10;99.90;;;;;;4985857;28;20251;-79
2021/04/10 08:38:40;;;;;;;2.10;1.70;;;7.20;99.90;;;;;;4986242;28;20212;-79
2021/04/10 08:41:08;;;;;;;3.70;1.70;;;7.40;99.90;;;;;;5001596;28;20225;-80
2021/04/10 08:43:39;;;;;;;1.40;1.30;;;7.50;99.90;;;;;;4985193;28;20184;-80
2021/04/10 08:46:08;;;;;;;2.00;1.47;;;7.50;99.90;;;;;;4986121;28;20188;-80
2021/04/10 08:48:35;;;;;;;1.90;1.53;;;7.60;99.90;;;;;;5001724;28;20220;-81
2021/04/10 08:51:04;;;;;;;1.87;1.40;;;7.70;99.90;;;;;;4986198;28;20196;-80
2021/04/10 08:53:36;;;;;;;1.60;0.93;;;7.70;99.90;;;;;;4985301;28;20191;-80
2021/04/10 08:56:08;;;;;;;2.67;1.43;;;7.60;99.90;;;;;;4984429;28;20192;-80
2021/04/10 08:58:37;;;;;;;3.30;1.47;;;7.60;99.90;;;;;;4984393;28;20303;-79
2021/04/10 09:01:08;;;;;;;6.33;2.70;;;7.60;99.90;;;;;;4984797;28;20243;-79
2021/04/10 09:03:45;;;;;;;3.97;1.83;;;7.80;99.90;;;;;;4985205;28;20618;-80
2021/04/10 09:06:12;;;;;;;3.47;1.90;;;8.00;99.90;;;;;;5001753;28;20184;-82
2021/04/10 09:08:37;;;;;;;1.93;1.47;;;8.10;99.90;;;;;;4984546;28;20205;-79
2021/04/10 09:11:05;;;;;;;3.40;2.07;;;8.30;99.90;;;;;;4983451;28;20194;-80
2021/04/10 09:13:33;;;;;;;5.70;2.53;;;8.30;99.90;;;;;;4985544;28;20263;-79
2021/04/10 09:16:28;;;;;;;4.67;1.83;;;8.10;99.90;;;;;;4983846;28;20209;-79
2021/04/10 09:19:00;;;;;;;1.77;1.50;;;8.20;99.90;;;;;;4984734;28;20223;-79
2021/04/10 09:21:46;;;;;;;2.37;2.00;;;8.20;99.90;;;;;;4986059;28;20692;-80
2021/04/10 09:24:25;;;;;;;2.40;1.60;;;8.10;99.90;;;;;;4980148;28;20666;-80
2021/04/10 09:26:59;;;;;;;2.40;1.57;;;8.20;99.90;;;;;;4998925;28;20226;-79
2021/04/10 09:29:27;;;;;;;35.63;13.10;;;8.00;99.90;;;;;;4984929;28;20203;-79
2021/04/10 09:31:58;;;;;;;31.67;13.33;;;8.10;99.90;;;;;;4983096;28;20723;-79
2021/04/10 09:34:42;;;;;;;11.30;5.33;;;8.40;99.90;;;;;;4999315;28;20202;-79
2021/04/10 09:37:20;;;;;;;25.93;16.07;;;8.50;99.90;;;;;;4983505;28;20194;-78
2021/04/10 09:40:17;;;;;;;17.70;9.73;;;8.50;99.90;;;;;;5000118;28;20211;-78
2021/04/10 09:45:14;;;;;;;3.33;2.10;;;8.40;99.90;;;;;;4982479;28;20637;-79
2021/04/10 09:48:07;;;;;;;15.90;6.80;;;8.50;99.90;;;;;;4999788;28;20184;-79
2021/04/10 09:50:56;;;;;;;11.87;6.23;;;8.60;99.90;;;;;;4998983;28;20196;-79
2021/04/10 09:53:26;;;;;;;5.73;4.83;;;8.40;99.90;;;;;;4980175;28;20229;-80
2021/04/10 09:56:05;;;;;;;2.67;1.60;;;8.40;99.90;;;;;;4997814;28;20322;-78
2021/04/10 09:58:36;;;;;;;2.30;1.40;;;8.30;99.90;;;;;;4982239;28;20215;-79
2021/04/10 10:01:05;;;;;;;2.87;2.00;;;8.40;99.90;;;;;;4982347;28;20187;-79
2021/04/10 10:03:31;;;;;;;2.77;1.70;;;8.50;99.90;;;;;;4982877;28;20196;-78
2021/04/10 10:05:57;;;;;;;2.60;1.73;;;8.50;99.90;;;;;;4984005;28;20188;-79
2021/04/10 10:08:28;;;;;;;6.13;3.20;;;8.60;99.90;;;;;;4983916;28;20708;-79
2021/04/10 10:10:56;;;;;;;2.20;2.00;;;8.70;99.90;;;;;;4984708;28;20217;-79
2021/04/10 10:13:24;;;;;;;1.43;1.23;;;8.80;99.90;;;;;;4983618;28;20248;-79
2021/04/10 10:15:51;;;;;;;2.83;2.30;;;8.80;99.90;;;;;;4983477;28;20215;-80
2021/04/10 10:18:34;;;;;;;5.43;2.57;;;8.70;99.90;;;;;;4985102;28;20204;-79
2021/04/10 10:21:18;;;;;;;4.43;2.43;;;8.80;99.90;;;;;;4998696;28;20180;-79
2021/04/10 10:23:53;;;;;;;4.50;2.60;;;9.00;99.90;;;;;;4983166;28;20283;-79
2021/04/10 10:26:29;;;;;;;3.87;3.20;;;9.20;99.90;;;;;;4982940;28;20176;-79
2021/04/10 10:29:05;;;;;;;3.33;2.53;;;9.40;99.90;;;;;;4983186;28;20200;-80
2021/04/10 10:31:44;;;;;;;2.57;1.63;;;9.70;99.90;;;;;;4981593;28;21387;-79
2021/04/10 10:34:13;;;;;;;5.20;4.70;;;9.80;99.90;;;;;;4998777;28;20189;-79
2021/04/10 10:36:41;;;;;;;2.60;2.03;;;9.60;99.90;;;;;;4987533;28;20251;-79
2021/04/10 10:39:09;;;;;;;1.77;1.67;;;9.60;99.90;;;;;;4986377;28;20208;-80
2021/04/10 10:41:45;;;;;;;2.97;1.70;;;9.60;99.90;;;;;;5002482;28;20698;-80
2021/04/10 10:44:11;;;;;;;2.53;1.87;;;9.70;99.90;;;;;;4984532;28;20188;-80
2021/04/10 10:46:37;;;;;;;2.73;1.87;;;9.70;99.90;;;;;;4987970;28;20195;-79
2021/04/10 10:49:08;;;;;;;1.37;1.27;;;9.60;99.90;;;;;;4983510;28;20686;-80
2021/04/10 10:51:36;;;;;;;4.00;1.80;;;9.60;99.90;;;;;;4982322;28;20258;-79
2021/04/10 10:54:02;;;;;;;5.93;2.53;;;9.40;99.90;;;;;;4983793;28;20256;-79
2021/04/10 10:56:30;;;;;;;7.53;2.00;;;9.30;99.90;;;;;;4983297;28;20292;-79
2021/04/10 10:59:07;;;;;;;2.87;1.80;;;9.20;99.90;;;;;;4985852;28;20258;-78
2021/04/10 11:01:41;;;;;;;1.93;1.83;;;9.00;99.90;;;;;;4987776;28;20599;-80
2021/04/10 11:04:18;;;;;;;4.17;2.93;;;8.90;99.90;;;;;;4986940;28;20188;-80
2021/04/10 11:06:46;;;;;;;4.87;3.93;;;8.90;99.90;;;;;;5002157;28;20195;-80
2021/04/10 11:09:18;;;;;;;9.87;8.87;;;8.90;99.90;;;;;;4986234;28;20223;-79
2021/04/10 11:11:47;;;;;;;3.93;3.60;;;9.00;99.90;;;;;;4985724;28;20241;-76
2021/04/10 11:14:25;;;;;;;4.93;3.47;;;9.10;99.90;;;;;;4985659;28;20200;-79
2021/04/10 11:16:52;;;;;;;8.87;6.70;;;9.30;99.90;;;;;;4984836;28;20263;-79
2021/04/10 11:19:27;;;;;;;4.63;3.47;;;9.50;99.90;;;;;;4999358;28;20274;-79
2021/04/10 11:21:54;;;;;;;2.73;2.43;;;9.70;99.90;;;;;;4983858;28;20266;-80
2021/04/10 11:24:20;;;;;;;4.57;2.80;;;9.80;99.90;;;;;;4982620;28;20200;-80
2021/04/10 11:26:53;;;;;;;5.43;2.50;;;9.90;99.90;;;;;;5000189;28;20191;-79
2021/04/10 11:29:28;;;;;;;2.90;1.80;;;10.00;99.90;;;;;;4983993;28;20347;-80
2021/04/10 11:32:12;;;;;;;4.40;2.23;;;10.00;99.90;;;;;;4985361;28;20620;-79
2021/04/10 11:34:47;;;;;;;2.93;2.00;;;10.00;99.90;;;;;;4983385;28;20187;-81
2021/04/10 11:37:15;;;;;;;3.83;2.17;;;10.00;99.90;;;;;;4983901;28;20180;-79
2021/04/10 11:40:01;;;;;;;2.33;1.50;;;9.90;99.90;;;;;;4983651;28;20200;-80
2021/04/10 11:42:38;;;;;;;3.70;1.80;;;9.90;99.90;;;;;;4984917;28;20793;-79
2021/04/10 11:45:08;;;;;;;2.80;1.97;;;9.90;99.90;;;;;;4999674;28;20199;-79
2021/04/10 11:47:39;;;;;;;4.37;1.90;;;9.80;99.90;;;;;;4982463;28;20228;-79
2021/04/10 11:50:08;;;;;;;2.37;1.87;;;9.90;99.90;;;;;;4983653;28;20192;-81
2021/04/10 11:52:34;;;;;;;2.77;1.90;;;9.90;99.90;;;;;;4985649;28;20223;-81
2021/04/10 11:55:23;;;;;;;2.57;2.37;;;10.00;99.90;;;;;;4986374;28;20208;-80
2021/04/10 11:57:56;;;;;;;2.40;1.93;;;10.00;99.90;;;;;;4986961;28;20220;-81
2021/04/10 12:00:26;;;;;;;3.30;2.20;;;10.00;99.90;;;;;;4986656;28;20180;-80
2021/04/10 12:02:52;;;;;;;3.47;2.43;;;10.00;99.90;;;;;;4985672;28;20184;-80
2021/04/10 12:05:22;;;;;;;3.50;2.30;;;10.00;99.90;;;;;;5000958;28;20246;-79
2021/04/10 12:08:11;;;;;;;3.23;2.50;;;9.90;99.90;;;;;;4985303;28;20191;-80
2021/04/10 12:10:59;;;;;;;4.50;2.83;;;10.00;99.90;;;;;;4985031;28;20188;-81
2021/04/10 12:13:26;;;;;;;5.40;2.70;;;9.90;99.90;;;;;;4986785;28;20204;-81
2021/04/10 12:15:57;;;;;;;2.63;2.20;;;10.00;99.90;;;;;;4984967;28;20231;-80
2021/04/10 12:18:27;;;;;;;3.07;2.33;;;10.00;99.90;;;;;;4985829;28;20208;-80
2021/04/10 12:20:56;;;;;;;4.57;2.57;;;10.10;99.90;;;;;;4983382;28;20724;-81
2021/04/10 12:23:22;;;;;;;3.10;2.73;;;10.20;99.90;;;;;;4986188;28;20199;-80
2021/04/10 12:25:48;;;;;;;3.47;2.67;;;10.20;99.90;;;;;;5000912;28;20192;-81
2021/04/10 12:28:15;;;;;;;6.20;3.00;;;10.20;99.90;;;;;;4985382;28;20243;-81
2021/04/10 12:30:41;;;;;;;5.83;2.70;;;10.20;99.90;;;;;;4985000;28;20220;-81
2021/04/10 12:33:06;;;;;;;4.80;2.73;;;10.20;99.90;;;;;;4984767;28;20249;-81
2021/04/10 12:35:33;;;;;;;3.73;2.60;;;10.20;99.90;;;;;;4984696;28;20180;-81
2021/04/10 12:37:58;;;;;;;6.43;3.97;;;10.40;99.90;;;;;;4986664;28;20204;-81
2021/04/10 12:40:25;;;;;;;4.43;3.30;;;10.40;99.90;;;;;;4986242;28;20280;-80
2021/04/10 12:42:51;;;;;;;4.93;3.23;;;10.50;99.90;;;;;;4985594;28;20647;-81
2021/04/10 12:45:17;;;;;;;3.63;2.70;;;10.70;99.90;;;;;;4985312;28;20608;-81
2021/04/10 12:47:43;;;;;;;3.70;3.07;;;10.90;99.90;;;;;;4986192;28;20191;-81
2021/04/10 12:50:11;;;;;;;4.60;3.43;;;10.90;99.90;;;;;;4984843;28;20251;-81
2021/04/10 12:52:36;;;;;;;4.57;3.30;;;11.00;99.90;;;;;;5000942;28;20322;-81
2021/04/10 12:55:06;;;;;;;7.80;4.27;;;10.80;99.90;;;;;;4984325;28;20290;-82
2021/04/10 12:57:33;;;;;;;6.97;3.97;;;10.70;99.90;;;;;;4984203;28;20172;-81
2021/04/10 12:59:58;;;;;;;5.63;3.40;;;10.70;99.90;;;;;;4985635;28;20238;-81
2021/04/10 13:02:24;;;;;;;5.93;3.50;;;10.50;99.90;;;;;;4986005;28;20200;-80
2021/04/10 13:04:49;;;;;;;4.50;3.50;;;10.30;99.90;;;;;;5000545;28;20848;-81
2021/04/10 13:07:15;;;;;;;6.90;3.87;;;10.20;99.90;;;;;;5001172;28;20192;-80